sensor_id;sensor_type;location;lat;lon;timestamp;temperature;humidity
26821;DHT22;37186;51.394;5.454;2022-09-09T00:02:57;18.80;70.50
26821;DHT22;37186;51.394;5.454;2022-09-09T00:09:28;18.90;70.50
26821;DHT22;37186;51.394;5.454;2022-09-09T00:12:44;18.80;70.30
26821;DHT22;37186;51.394;5.454;2022-09-09T00:16:17;18.80;70.50
26821;DHT22;37186;51.394;5.454;2022-09-09T00:22:42;18.80;70.70
26821;DHT22;37186;51.394;5.454;2022-09-09T00:32:16;18.80;70.80
26821;DHT22;37186;51.394;5.454;2022-09-09T00:35:27;18.80;70.70
26821;DHT22;37186;51.394;5.454;2022-09-09T00:38:35;18.70;70.50
26821;DHT22;37186;51.394;5.454;2022-09-09T00:45:52;18.70;70.70
26821;DHT22;37186;51.394;5.454;2022-09-09T00:48:35;18.70;70.50
26821;DHT22;37186;51.394;5.454;2022-09-09T00:58:26;18.60;70.60
26821;DHT22;37186;51.394;5.454;2022-09-09T01:01:27;18.60;70.60
26821;DHT22;37186;51.394;5.454;2022-09-09T01:04:36;18.60;70.50
26821;DHT22;37186;51.394;5.454;2022-09-09T01:07:37;18.60;70.70
26821;DHT22;37186;51.394;5.454;2022-09-09T01:10:47;18.60;70.70
26821;DHT22;37186;51.394;5.454;2022-09-09T01:13:58;18.50;70.50
26821;DHT22;37186;51.394;5.454;2022-09-09T01:17:07;18.60;70.60
26821;DHT22;37186;51.394;5.454;2022-09-09T01:20:14;18.50;70.60
26821;DHT22;37186;51.394;5.454;2022-09-09T01:23:41;18.50;70.60
26821;DHT22;37186;51.394;5.454;2022-09-09T01:26:44;18.50;70.70
26821;DHT22;37186;51.394;5.454;2022-09-09T01:29:46;18.50;70.50
26821;DHT22;37186;51.394;5.454;2022-09-09T01:32:50;18.50;70.80
26821;DHT22;37186;51.394;5.454;2022-09-09T01:36:01;18.50;70.70
26821;DHT22;37186;51.394;5.454;2022-09-09T01:39:03;18.40;70.70
26821;DHT22;37186;51.394;5.454;2022-09-09T01:42:05;18.40;70.60
26821;DHT22;37186;51.394;5.454;2022-09-09T01:45:07;18.40;70.70
26821;DHT22;37186;51.394;5.454;2022-09-09T01:48:07;18.40;70.60
26821;DHT22;37186;51.394;5.454;2022-09-09T01:51:09;18.40;70.60
26821;DHT22;37186;51.394;5.454;2022-09-09T01:54:10;18.30;70.60
26821;DHT22;37186;51.394;5.454;2022-09-09T01:57:27;18.30;70.60
26821;DHT22;37186;51.394;5.454;2022-09-09T02:00:29;18.30;70.60
26821;DHT22;37186;51.394;5.454;2022-09-09T02:03:33;18.30;70.70
26821;DHT22;37186;51.394;5.454;2022-09-09T02:06:37;18.30;70.60
26821;DHT22;37186;51.394;5.454;2022-09-09T02:09:40;18.30;70.60
26821;DHT22;37186;51.394;5.454;2022-09-09T02:12:48;18.30;70.80
26821;DHT22;37186;51.394;5.454;2022-09-09T02:15:52;18.20;70.50
26821;DHT22;37186;51.394;5.454;2022-09-09T02:19:02;18.20;70.50
26821;DHT22;37186;51.394;5.454;2022-09-09T02:22:07;18.20;71.00
26821;DHT22;37186;51.394;5.454;2022-09-09T02:25:10;18.20;70.80
26821;DHT22;37186;51.394;5.454;2022-09-09T02:28:13;18.20;70.80
26821;DHT22;37186;51.394;5.454;2022-09-09T02:31:17;18.20;70.80
26821;DHT22;37186;51.394;5.454;2022-09-09T02:34:21;18.20;70.80
26821;DHT22;37186;51.394;5.454;2022-09-09T02:37:29;18.20;70.70
26821;DHT22;37186;51.394;5.454;2022-09-09T02:40:32;18.20;71.30
26821;DHT22;37186;51.394;5.454;2022-09-09T02:43:34;18.20;70.80
26821;DHT22;37186;51.394;5.454;2022-09-09T02:47:00;18.10;70.70
26821;DHT22;37186;51.394;5.454;2022-09-09T02:50:05;18.10;70.60
26821;DHT22;37186;51.394;5.454;2022-09-09T02:53:24;18.10;71.10
26821;DHT22;37186;51.394;5.454;2022-09-09T02:56:29;18.10;70.80
26821;DHT22;37186;51.394;5.454;2022-09-09T02:59:31;18.10;70.90
26821;DHT22;37186;51.394;5.454;2022-09-09T03:02:31;18.10;70.80
26821;DHT22;37186;51.394;5.454;2022-09-09T03:05:32;18.10;70.90
26821;DHT22;37186;51.394;5.454;2022-09-09T03:08:33;18.10;71.00
26821;DHT22;37186;51.394;5.454;2022-09-09T03:11:33;18.10;70.80
26821;DHT22;37186;51.394;5.454;2022-09-09T03:14:34;18.10;71.40
26821;DHT22;37186;51.394;5.454;2022-09-09T03:17:34;18.10;70.80
26821;DHT22;37186;51.394;5.454;2022-09-09T03:20:35;18.10;70.90
26821;DHT22;37186;51.394;5.454;2022-09-09T03:23:36;18.10;71.60
26821;DHT22;37186;51.394;5.454;2022-09-09T03:26:36;18.10;70.80
26821;DHT22;37186;51.394;5.454;2022-09-09T03:29:37;18.00;70.80
26821;DHT22;37186;51.394;5.454;2022-09-09T03:32:38;18.10;70.80
26821;DHT22;37186;51.394;5.454;2022-09-09T03:35:45;18.10;70.90
26821;DHT22;37186;51.394;5.454;2022-09-09T03:38:47;18.00;70.80
26821;DHT22;37186;51.394;5.454;2022-09-09T03:41:48;18.00;70.80
26821;DHT22;37186;51.394;5.454;2022-09-09T03:44:49;18.00;70.80
26821;DHT22;37186;51.394;5.454;2022-09-09T03:47:52;18.00;71.00
26821;DHT22;37186;51.394;5.454;2022-09-09T03:50:54;18.00;70.90
26821;DHT22;37186;51.394;5.454;2022-09-09T03:53:56;18.00;70.90
26821;DHT22;37186;51.394;5.454;2022-09-09T03:56:58;18.00;70.90
26821;DHT22;37186;51.394;5.454;2022-09-09T03:59:58;18.00;70.90
26821;DHT22;37186;51.394;5.454;2022-09-09T04:03:01;18.00;71.00
26821;DHT22;37186;51.394;5.454;2022-09-09T04:06:04;17.90;71.20
26821;DHT22;37186;51.394;5.454;2022-09-09T04:09:05;17.90;70.80
26821;DHT22;37186;51.394;5.454;2022-09-09T04:12:05;17.90;70.90
26821;DHT22;37186;51.394;5.454;2022-09-09T04:15:07;17.90;70.80
26821;DHT22;37186;51.394;5.454;2022-09-09T04:18:08;17.90;70.90
26821;DHT22;37186;51.394;5.454;2022-09-09T04:21:10;17.90;70.80
26821;DHT22;37186;51.394;5.454;2022-09-09T04:24:12;17.90;71.20
26821;DHT22;37186;51.394;5.454;2022-09-09T04:27:12;18.00;71.10
26821;DHT22;37186;51.394;5.454;2022-09-09T04:30:13;17.90;70.90
26821;DHT22;37186;51.394;5.454;2022-09-09T04:33:14;17.90;71.00
26821;DHT22;37186;51.394;5.454;2022-09-09T04:36:15;17.90;71.00
26821;DHT22;37186;51.394;5.454;2022-09-09T04:39:15;17.90;71.10
26821;DHT22;37186;51.394;5.454;2022-09-09T04:42:16;17.90;71.00
26821;DHT22;37186;51.394;5.454;2022-09-09T04:45:18;17.90;71.00
26821;DHT22;37186;51.394;5.454;2022-09-09T04:48:19;17.90;71.30
26821;DHT22;37186;51.394;5.454;2022-09-09T04:51:21;17.90;71.00
26821;DHT22;37186;51.394;5.454;2022-09-09T04:54:22;17.90;71.10
26821;DHT22;37186;51.394;5.454;2022-09-09T04:57:23;17.90;71.00
26821;DHT22;37186;51.394;5.454;2022-09-09T05:00:24;17.90;71.10
26821;DHT22;37186;51.394;5.454;2022-09-09T05:03:25;17.90;71.40
26821;DHT22;37186;51.394;5.454;2022-09-09T05:06:25;17.90;71.10
26821;DHT22;37186;51.394;5.454;2022-09-09T05:09:26;17.90;71.40
26821;DHT22;37186;51.394;5.454;2022-09-09T05:12:26;17.90;71.10
26821;DHT22;37186;51.394;5.454;2022-09-09T05:15:27;17.90;71.40
26821;DHT22;37186;51.394;5.454;2022-09-09T05:18:27;17.80;71.10
26821;DHT22;37186;51.394;5.454;2022-09-09T05:21:28;17.90;71.40
26821;DHT22;37186;51.394;5.454;2022-09-09T05:24:31;17.90;71.10
26821;DHT22;37186;51.394;5.454;2022-09-09T05:27:36;17.90;72.00
26821;DHT22;37186;51.394;5.454;2022-09-09T05:30:37;17.90;71.20
26821;DHT22;37186;51.394;5.454;2022-09-09T05:33:42;17.80;71.00
26821;DHT22;37186;51.394;5.454;2022-09-09T05:36:43;17.80;71.20
26821;DHT22;37186;51.394;5.454;2022-09-09T05:39:44;17.80;71.20
26821;DHT22;37186;51.394;5.454;2022-09-09T05:42:44;17.90;71.50
26821;DHT22;37186;51.394;5.454;2022-09-09T05:45:46;17.80;71.30
26821;DHT22;37186;51.394;5.454;2022-09-09T05:48:48;17.80;71.80
26821;DHT22;37186;51.394;5.454;2022-09-09T05:51:53;17.70;71.20
26821;DHT22;37186;51.394;5.454;2022-09-09T05:54:54;17.80;71.60
26821;DHT22;37186;51.394;5.454;2022-09-09T05:57:55;17.80;71.30
26821;DHT22;37186;51.394;5.454;2022-09-09T06:01:07;17.80;71.90
26821;DHT22;37186;51.394;5.454;2022-09-09T06:04:08;17.80;72.10
26821;DHT22;37186;51.394;5.454;2022-09-09T06:07:09;17.80;71.90
26821;DHT22;37186;51.394;5.454;2022-09-09T06:10:10;17.80;71.70
26821;DHT22;37186;51.394;5.454;2022-09-09T06:13:10;17.80;71.90
26821;DHT22;37186;51.394;5.454;2022-09-09T06:16:17;17.80;71.60
26821;DHT22;37186;51.394;5.454;2022-09-09T06:19:18;17.80;71.90
26821;DHT22;37186;51.394;5.454;2022-09-09T06:22:19;17.80;72.00
26821;DHT22;37186;51.394;5.454;2022-09-09T06:25:21;17.90;71.80
26821;DHT22;37186;51.394;5.454;2022-09-09T06:28:22;17.90;72.30
26821;DHT22;37186;51.394;5.454;2022-09-09T06:31:25;17.90;72.40
26821;DHT22;37186;51.394;5.454;2022-09-09T06:34:26;17.90;72.80
26821;DHT22;37186;51.394;5.454;2022-09-09T06:37:26;17.90;73.10
26821;DHT22;37186;51.394;5.454;2022-09-09T06:40:27;17.90;72.00
26821;DHT22;37186;51.394;5.454;2022-09-09T06:43:28;18.00;72.30
26821;DHT22;37186;51.394;5.454;2022-09-09T06:46:30;18.00;72.50
26821;DHT22;37186;51.394;5.454;2022-09-09T06:49:32;18.00;72.20
26821;DHT22;37186;51.394;5.454;2022-09-09T06:52:33;18.00;72.70
26821;DHT22;37186;51.394;5.454;2022-09-09T06:55:33;18.00;72.60
26821;DHT22;37186;51.394;5.454;2022-09-09T06:58:35;18.00;73.30
26821;DHT22;37186;51.394;5.454;2022-09-09T07:01:38;18.00;72.40
26821;DHT22;37186;51.394;5.454;2022-09-09T07:04:41;18.00;72.40
26821;DHT22;37186;51.394;5.454;2022-09-09T07:07:41;18.00;72.70
26821;DHT22;37186;51.394;5.454;2022-09-09T07:10:42;18.00;72.40
26821;DHT22;37186;51.394;5.454;2022-09-09T07:13:43;18.00;72.30
26821;DHT22;37186;51.394;5.454;2022-09-09T07:16:45;18.10;73.40
26821;DHT22;37186;51.394;5.454;2022-09-09T07:19:46;18.10;72.90
26821;DHT22;37186;51.394;5.454;2022-09-09T07:22:47;18.10;73.00
26821;DHT22;37186;51.394;5.454;2022-09-09T07:25:48;18.10;72.80
26821;DHT22;37186;51.394;5.454;2022-09-09T07:28:49;18.10;72.90
26821;DHT22;37186;51.394;5.454;2022-09-09T07:31:49;18.10;73.10
26821;DHT22;37186;51.394;5.454;2022-09-09T07:34:50;18.20;72.90
26821;DHT22;37186;51.394;5.454;2022-09-09T07:37:50;18.20;72.90
26821;DHT22;37186;51.394;5.454;2022-09-09T07:40:51;18.20;73.90
26821;DHT22;37186;51.394;5.454;2022-09-09T07:43:52;18.20;73.00
26821;DHT22;37186;51.394;5.454;2022-09-09T07:46:54;18.30;73.30
26821;DHT22;37186;51.394;5.454;2022-09-09T07:49:54;18.30;73.10
26821;DHT22;37186;51.394;5.454;2022-09-09T07:52:56;18.30;73.70
26821;DHT22;37186;51.394;5.454;2022-09-09T07:56:03;18.30;73.40
26821;DHT22;37186;51.394;5.454;2022-09-09T07:59:04;18.40;74.00
26821;DHT22;37186;51.394;5.454;2022-09-09T08:02:06;18.40;73.50
26821;DHT22;37186;51.394;5.454;2022-09-09T08:05:07;18.50;73.40
26821;DHT22;37186;51.394;5.454;2022-09-09T08:08:08;18.50;73.50
26821;DHT22;37186;51.394;5.454;2022-09-09T08:11:11;18.50;73.80
26821;DHT22;37186;51.394;5.454;2022-09-09T08:14:13;18.50;73.30
26821;DHT22;37186;51.394;5.454;2022-09-09T08:17:14;18.60;74.60
26821;DHT22;37186;51.394;5.454;2022-09-09T08:20:14;18.60;73.50
26821;DHT22;37186;51.394;5.454;2022-09-09T08:23:15;18.60;73.50
26821;DHT22;37186;51.394;5.454;2022-09-09T08:26:18;18.60;73.40
26821;DHT22;37186;51.394;5.454;2022-09-09T08:29:22;18.70;73.90
26821;DHT22;37186;51.394;5.454;2022-09-09T08:32:23;18.70;73.50
26821;DHT22;37186;51.394;5.454;2022-09-09T08:35:24;18.70;73.40
26821;DHT22;37186;51.394;5.454;2022-09-09T08:38:24;18.70;73.50
26821;DHT22;37186;51.394;5.454;2022-09-09T08:51:42;18.80;73.60
26821;DHT22;37186;51.394;5.454;2022-09-09T08:54:42;18.90;73.50
26821;DHT22;37186;51.394;5.454;2022-09-09T08:57:43;18.90;73.60
26821;DHT22;37186;51.394;5.454;2022-09-09T09:10:45;18.90;73.50
26821;DHT22;37186;51.394;5.454;2022-09-09T09:14:01;19.00;73.40
26821;DHT22;37186;51.394;5.454;2022-09-09T09:17:11;19.00;73.30
26821;DHT22;37186;51.394;5.454;2022-09-09T09:20:20;19.00;73.20
26821;DHT22;37186;51.394;5.454;2022-09-09T09:23:25;19.00;73.30
26821;DHT22;37186;51.394;5.454;2022-09-09T09:26:32;19.00;73.30
26821;DHT22;37186;51.394;5.454;2022-09-09T09:29:33;19.00;73.60
26821;DHT22;37186;51.394;5.454;2022-09-09T09:32:36;19.00;73.40
26821;DHT22;37186;51.394;5.454;2022-09-09T09:35:36;19.00;73.50
26821;DHT22;37186;51.394;5.454;2022-09-09T09:38:37;19.10;73.50
26821;DHT22;37186;51.394;5.454;2022-09-09T09:41:42;19.10;73.70
26821;DHT22;37186;51.394;5.454;2022-09-09T09:44:46;19.10;73.70
26821;DHT22;37186;51.394;5.454;2022-09-09T09:47:46;19.10;73.50
26821;DHT22;37186;51.394;5.454;2022-09-09T09:51:08;19.20;73.50
26821;DHT22;37186;51.394;5.454;2022-09-09T09:54:24;19.20;74.30
26821;DHT22;37186;51.394;5.454;2022-09-09T09:57:29;19.20;73.70
26821;DHT22;37186;51.394;5.454;2022-09-09T10:00:32;19.20;73.80
26821;DHT22;37186;51.394;5.454;2022-09-09T10:03:34;19.30;73.70
26821;DHT22;37186;51.394;5.454;2022-09-09T10:06:37;19.30;73.80
26821;DHT22;37186;51.394;5.454;2022-09-09T10:09:40;19.30;73.40
26821;DHT22;37186;51.394;5.454;2022-09-09T10:13:02;19.30;74.20
26821;DHT22;37186;51.394;5.454;2022-09-09T10:20:07;19.20;73.40
26821;DHT22;37186;51.394;5.454;2022-09-09T10:23:29;19.30;73.80
26821;DHT22;37186;51.394;5.454;2022-09-09T10:30:17;19.30;73.40
26821;DHT22;37186;51.394;5.454;2022-09-09T10:36:28;19.30;74.20
26821;DHT22;37186;51.394;5.454;2022-09-09T10:39:36;19.30;73.50
26821;DHT22;37186;51.394;5.454;2022-09-09T10:42:38;19.20;73.70
26821;DHT22;37186;51.394;5.454;2022-09-09T10:45:55;19.20;73.80
26821;DHT22;37186;51.394;5.454;2022-09-09T10:49:22;19.20;74.20
26821;DHT22;37186;51.394;5.454;2022-09-09T10:52:50;19.20;74.00
26821;DHT22;37186;51.394;5.454;2022-09-09T10:55:59;19.20;73.70
26821;DHT22;37186;51.394;5.454;2022-09-09T10:59:14;19.30;74.00
26821;DHT22;37186;51.394;5.454;2022-09-09T11:02:25;19.30;73.80
26821;DHT22;37186;51.394;5.454;2022-09-09T11:05:28;19.30;74.40
26821;DHT22;37186;51.394;5.454;2022-09-09T11:08:32;19.30;74.50
26821;DHT22;37186;51.394;5.454;2022-09-09T11:11:41;19.30;74.40
26821;DHT22;37186;51.394;5.454;2022-09-09T11:18:01;19.40;75.30
26821;DHT22;37186;51.394;5.454;2022-09-09T11:21:09;19.40;74.80
26821;DHT22;37186;51.394;5.454;2022-09-09T11:24:45;19.50;74.90
26821;DHT22;37186;51.394;5.454;2022-09-09T11:31:05;19.60;75.10
26821;DHT22;37186;51.394;5.454;2022-09-09T11:41:03;19.60;75.20
26821;DHT22;37186;51.394;5.454;2022-09-09T11:44:19;19.70;75.00
26821;DHT22;37186;51.394;5.454;2022-09-09T11:47:29;19.70;74.80
26821;DHT22;37186;51.394;5.454;2022-09-09T11:50:33;19.70;74.90
26821;DHT22;37186;51.394;5.454;2022-09-09T11:53:46;19.70;75.00
26821;DHT22;37186;51.394;5.454;2022-09-09T11:56:49;19.70;74.90
26821;DHT22;37186;51.394;5.454;2022-09-09T11:59:52;19.70;74.60
26821;DHT22;37186;51.394;5.454;2022-09-09T12:02:53;19.70;75.20
26821;DHT22;37186;51.394;5.454;2022-09-09T12:05:54;19.80;74.80
26821;DHT22;37186;51.394;5.454;2022-09-09T12:09:16;19.80;74.60
26821;DHT22;37186;51.394;5.454;2022-09-09T12:12:26;19.80;75.10
26821;DHT22;37186;51.394;5.454;2022-09-09T12:15:28;19.90;74.80
26821;DHT22;37186;51.394;5.454;2022-09-09T12:18:35;19.90;75.10
26821;DHT22;37186;51.394;5.454;2022-09-09T12:21:53;19.90;74.90
26821;DHT22;37186;51.394;5.454;2022-09-09T12:35:10;20.00;74.90
26821;DHT22;37186;51.394;5.454;2022-09-09T12:38:16;20.00;74.90
26821;DHT22;37186;51.394;5.454;2022-09-09T12:41:24;20.00;75.00
26821;DHT22;37186;51.394;5.454;2022-09-09T12:44:26;20.10;75.10
26821;DHT22;37186;51.394;5.454;2022-09-09T12:47:38;20.10;74.90
26821;DHT22;37186;51.394;5.454;2022-09-09T12:50:48;20.10;74.70
26821;DHT22;37186;51.394;5.454;2022-09-09T12:53:50;20.10;74.60
26821;DHT22;37186;51.394;5.454;2022-09-09T12:56:51;20.10;74.90
26821;DHT22;37186;51.394;5.454;2022-09-09T12:59:52;20.20;74.80
26821;DHT22;37186;51.394;5.454;2022-09-09T13:02:58;20.20;74.70
26821;DHT22;37186;51.394;5.454;2022-09-09T13:06:12;20.20;74.60
26821;DHT22;37186;51.394;5.454;2022-09-09T13:09:14;20.20;74.70
26821;DHT22;37186;51.394;5.454;2022-09-09T13:12:21;20.20;74.70
26821;DHT22;37186;51.394;5.454;2022-09-09T13:15:24;20.20;74.50
26821;DHT22;37186;51.394;5.454;2022-09-09T13:18:37;20.30;74.60
26821;DHT22;37186;51.394;5.454;2022-09-09T13:21:40;20.30;74.60
26821;DHT22;37186;51.394;5.454;2022-09-09T13:24:40;20.30;74.70
26821;DHT22;37186;51.394;5.454;2022-09-09T13:31:18;20.40;74.70
26821;DHT22;37186;51.394;5.454;2022-09-09T13:34:31;20.40;74.60
26821;DHT22;37186;51.394;5.454;2022-09-09T13:37:37;20.40;74.50
26821;DHT22;37186;51.394;5.454;2022-09-09T13:40:38;20.40;74.50
26821;DHT22;37186;51.394;5.454;2022-09-09T13:43:45;20.40;74.40
26821;DHT22;37186;51.394;5.454;2022-09-09T13:46:47;20.40;74.60
26821;DHT22;37186;51.394;5.454;2022-09-09T13:49:48;20.50;74.60
26821;DHT22;37186;51.394;5.454;2022-09-09T13:52:53;20.50;74.40
26821;DHT22;37186;51.394;5.454;2022-09-09T13:55:54;20.50;74.40
26821;DHT22;37186;51.394;5.454;2022-09-09T13:58:55;20.60;75.00
26821;DHT22;37186;51.394;5.454;2022-09-09T14:01:55;20.60;74.70
26821;DHT22;37186;51.394;5.454;2022-09-09T14:04:56;20.60;74.50
26821;DHT22;37186;51.394;5.454;2022-09-09T14:07:57;20.70;74.40
26821;DHT22;37186;51.394;5.454;2022-09-09T14:10:58;20.70;74.40
26821;DHT22;37186;51.394;5.454;2022-09-09T14:13:59;20.70;74.30
26821;DHT22;37186;51.394;5.454;2022-09-09T14:17:01;20.70;74.20
26821;DHT22;37186;51.394;5.454;2022-09-09T14:20:05;20.70;74.10
26821;DHT22;37186;51.394;5.454;2022-09-09T14:23:11;20.70;74.00
26821;DHT22;37186;51.394;5.454;2022-09-09T14:26:12;20.70;74.00
26821;DHT22;37186;51.394;5.454;2022-09-09T14:29:13;20.80;74.10
26821;DHT22;37186;51.394;5.454;2022-09-09T14:32:14;20.70;74.00
26821;DHT22;37186;51.394;5.454;2022-09-09T14:35:14;20.70;74.10
26821;DHT22;37186;51.394;5.454;2022-09-09T14:38:15;20.80;74.10
26821;DHT22;37186;51.394;5.454;2022-09-09T14:41:17;20.80;74.00
26821;DHT22;37186;51.394;5.454;2022-09-09T14:44:18;20.80;74.00
26821;DHT22;37186;51.394;5.454;2022-09-09T14:47:19;20.90;74.00
26821;DHT22;37186;51.394;5.454;2022-09-09T14:50:20;20.90;74.00
26821;DHT22;37186;51.394;5.454;2022-09-09T14:53:21;20.90;74.00
26821;DHT22;37186;51.394;5.454;2022-09-09T14:56:24;20.90;74.00
26821;DHT22;37186;51.394;5.454;2022-09-09T14:59:25;20.90;73.90
26821;DHT22;37186;51.394;5.454;2022-09-09T15:02:25;21.00;73.90
26821;DHT22;37186;51.394;5.454;2022-09-09T15:05:26;21.00;73.80
26821;DHT22;37186;51.394;5.454;2022-09-09T15:08:28;21.00;73.80
26821;DHT22;37186;51.394;5.454;2022-09-09T15:11:34;21.00;73.80
26821;DHT22;37186;51.394;5.454;2022-09-09T15:14:37;21.10;73.70
26821;DHT22;37186;51.394;5.454;2022-09-09T15:17:38;21.10;73.80
26821;DHT22;37186;51.394;5.454;2022-09-09T15:20:39;21.10;73.70
26821;DHT22;37186;51.394;5.454;2022-09-09T15:23:44;21.10;73.70
26821;DHT22;37186;51.394;5.454;2022-09-09T15:26:46;21.10;73.70
26821;DHT22;37186;51.394;5.454;2022-09-09T15:29:46;21.10;73.60
26821;DHT22;37186;51.394;5.454;2022-09-09T15:32:47;21.20;73.70
26821;DHT22;37186;51.394;5.454;2022-09-09T15:35:48;21.20;73.70
26821;DHT22;37186;51.394;5.454;2022-09-09T15:38:50;21.20;73.60
26821;DHT22;37186;51.394;5.454;2022-09-09T15:41:50;21.20;73.60
26821;DHT22;37186;51.394;5.454;2022-09-09T15:44:51;21.20;73.50
26821;DHT22;37186;51.394;5.454;2022-09-09T15:47:52;21.20;73.50
26821;DHT22;37186;51.394;5.454;2022-09-09T15:51:03;21.20;73.40
26821;DHT22;37186;51.394;5.454;2022-09-09T15:54:04;21.20;73.40
26821;DHT22;37186;51.394;5.454;2022-09-09T15:57:07;21.20;73.50
26821;DHT22;37186;51.394;5.454;2022-09-09T16:00:09;21.20;73.50
26821;DHT22;37186;51.394;5.454;2022-09-09T16:03:12;21.20;73.30
26821;DHT22;37186;51.394;5.454;2022-09-09T16:06:14;21.30;73.50
26821;DHT22;37186;51.394;5.454;2022-09-09T16:09:14;21.30;73.40
26821;DHT22;37186;51.394;5.454;2022-09-09T16:12:15;21.30;73.30
26821;DHT22;37186;51.394;5.454;2022-09-09T16:15:16;21.20;73.20
26821;DHT22;37186;51.394;5.454;2022-09-09T16:18:17;21.30;73.20
26821;DHT22;37186;51.394;5.454;2022-09-09T16:21:28;21.30;73.20
26821;DHT22;37186;51.394;5.454;2022-09-09T16:24:29;21.30;73.10
26821;DHT22;37186;51.394;5.454;2022-09-09T16:27:30;21.20;73.80
26821;DHT22;37186;51.394;5.454;2022-09-09T16:30:30;21.20;73.00
26821;DHT22;37186;51.394;5.454;2022-09-09T16:33:31;21.20;73.00
26821;DHT22;37186;51.394;5.454;2022-09-09T16:36:33;21.20;73.00
26821;DHT22;37186;51.394;5.454;2022-09-09T16:39:34;21.20;72.90
26821;DHT22;37186;51.394;5.454;2022-09-09T16:42:35;21.20;73.00
26821;DHT22;37186;51.394;5.454;2022-09-09T16:45:41;21.20;72.40
26821;DHT22;37186;51.394;5.454;2022-09-09T16:48:43;21.00;72.20
26821;DHT22;37186;51.394;5.454;2022-09-09T16:51:49;21.00;72.10
26821;DHT22;37186;51.394;5.454;2022-09-09T16:54:53;20.90;72.20
26821;DHT22;37186;51.394;5.454;2022-09-09T16:57:53;20.80;72.10
26821;DHT22;37186;51.394;5.454;2022-09-09T17:00:58;20.70;72.10
26821;DHT22;37186;51.394;5.454;2022-09-09T17:04:00;20.60;72.00
26821;DHT22;37186;51.394;5.454;2022-09-09T17:07:01;20.50;72.00
26821;DHT22;37186;51.394;5.454;2022-09-09T17:10:02;20.40;72.30
26821;DHT22;37186;51.394;5.454;2022-09-09T17:13:02;20.40;72.40
26821;DHT22;37186;51.394;5.454;2022-09-09T17:16:04;20.30;72.30
26821;DHT22;37186;51.394;5.454;2022-09-09T17:19:05;20.20;72.70
26821;DHT22;37186;51.394;5.454;2022-09-09T17:22:06;20.20;72.70
26821;DHT22;37186;51.394;5.454;2022-09-09T17:25:07;20.20;72.70
26821;DHT22;37186;51.394;5.454;2022-09-09T17:28:08;20.10;72.80
26821;DHT22;37186;51.394;5.454;2022-09-09T17:31:10;20.10;72.80
26821;DHT22;37186;51.394;5.454;2022-09-09T17:34:11;20.10;73.80
26821;DHT22;37186;51.394;5.454;2022-09-09T17:37:11;20.10;73.40
26821;DHT22;37186;51.394;5.454;2022-09-09T17:40:13;20.00;73.10
26821;DHT22;37186;51.394;5.454;2022-09-09T17:43:13;20.00;73.00
26821;DHT22;37186;51.394;5.454;2022-09-09T17:46:20;20.00;73.10
26821;DHT22;37186;51.394;5.454;2022-09-09T17:49:21;20.00;73.20
26821;DHT22;37186;51.394;5.454;2022-09-09T17:52:22;19.90;73.50
26821;DHT22;37186;51.394;5.454;2022-09-09T17:55:23;20.00;73.70
26821;DHT22;37186;51.394;5.454;2022-09-09T17:58:23;19.90;73.50
26821;DHT22;37186;51.394;5.454;2022-09-09T18:01:26;19.90;73.80
26821;DHT22;37186;51.394;5.454;2022-09-09T18:04:28;19.90;73.50
26821;DHT22;37186;51.394;5.454;2022-09-09T18:07:28;19.90;73.50
26821;DHT22;37186;51.394;5.454;2022-09-09T18:10:29;19.90;73.70
26821;DHT22;37186;51.394;5.454;2022-09-09T18:13:30;19.80;73.90
26821;DHT22;37186;51.394;5.454;2022-09-09T18:16:32;19.80;73.60
26821;DHT22;37186;51.394;5.454;2022-09-09T18:19:36;19.80;73.60
26821;DHT22;37186;51.394;5.454;2022-09-09T18:22:36;19.80;73.90
26821;DHT22;37186;51.394;5.454;2022-09-09T18:25:38;19.70;73.50
26821;DHT22;37186;51.394;5.454;2022-09-09T18:28:41;19.70;73.60
26821;DHT22;37186;51.394;5.454;2022-09-09T18:31:42;19.70;74.00
26821;DHT22;37186;51.394;5.454;2022-09-09T18:34:42;19.70;73.50
26821;DHT22;37186;51.394;5.454;2022-09-09T18:37:45;19.70;73.90
26821;DHT22;37186;51.394;5.454;2022-09-09T18:40:46;19.70;74.00
26821;DHT22;37186;51.394;5.454;2022-09-09T18:43:52;19.60;73.70
26821;DHT22;37186;51.394;5.454;2022-09-09T18:46:54;19.60;74.10
26821;DHT22;37186;51.394;5.454;2022-09-09T18:49:54;19.60;73.70
26821;DHT22;37186;51.394;5.454;2022-09-09T18:52:55;19.60;73.70
26821;DHT22;37186;51.394;5.454;2022-09-09T18:56:05;19.60;74.40
26821;DHT22;37186;51.394;5.454;2022-09-09T18:59:07;19.60;73.80
26821;DHT22;37186;51.394;5.454;2022-09-09T19:02:08;19.60;73.90
26821;DHT22;37186;51.394;5.454;2022-09-09T19:05:11;19.60;74.00
26821;DHT22;37186;51.394;5.454;2022-09-09T19:08:12;19.50;74.20
26821;DHT22;37186;51.394;5.454;2022-09-09T19:11:15;19.50;73.80
26821;DHT22;37186;51.394;5.454;2022-09-09T19:14:16;19.50;73.90
26821;DHT22;37186;51.394;5.454;2022-09-09T19:17:17;19.50;73.90
26821;DHT22;37186;51.394;5.454;2022-09-09T19:20:18;19.50;74.90
26821;DHT22;37186;51.394;5.454;2022-09-09T19:23:22;19.50;74.00
26821;DHT22;37186;51.394;5.454;2022-09-09T19:26:31;19.50;73.90
26821;DHT22;37186;51.394;5.454;2022-09-09T19:29:35;19.50;74.00
26821;DHT22;37186;51.394;5.454;2022-09-09T19:32:36;19.50;74.30
26821;DHT22;37186;51.394;5.454;2022-09-09T19:35:36;19.50;74.00
26821;DHT22;37186;51.394;5.454;2022-09-09T19:38:37;19.50;74.20
26821;DHT22;37186;51.394;5.454;2022-09-09T19:41:38;19.40;74.40
26821;DHT22;37186;51.394;5.454;2022-09-09T19:44:38;19.40;74.20
26821;DHT22;37186;51.394;5.454;2022-09-09T19:47:39;19.40;74.40
26821;DHT22;37186;51.394;5.454;2022-09-09T19:50:39;19.40;74.10
26821;DHT22;37186;51.394;5.454;2022-09-09T19:53:42;19.40;74.00
26821;DHT22;37186;51.394;5.454;2022-09-09T19:56:43;19.40;73.90
26821;DHT22;37186;51.394;5.454;2022-09-09T19:59:44;19.40;73.90
26821;DHT22;37186;51.394;5.454;2022-09-09T20:02:44;19.30;74.00
26821;DHT22;37186;51.394;5.454;2022-09-09T20:05:45;19.30;74.20
26821;DHT22;37186;51.394;5.454;2022-09-09T20:08:49;19.30;73.90
26821;DHT22;37186;51.394;5.454;2022-09-09T20:11:50;19.30;74.00
26821;DHT22;37186;51.394;5.454;2022-09-09T20:14:50;19.30;74.30
26821;DHT22;37186;51.394;5.454;2022-09-09T20:17:51;19.30;74.20
26821;DHT22;37186;51.394;5.454;2022-09-09T20:20:51;19.30;74.20
26821;DHT22;37186;51.394;5.454;2022-09-09T20:23:55;19.30;74.20
26821;DHT22;37186;51.394;5.454;2022-09-09T20:26:56;19.30;74.20
26821;DHT22;37186;51.394;5.454;2022-09-09T20:29:57;19.30;74.20
26821;DHT22;37186;51.394;5.454;2022-09-09T20:32:58;19.30;74.30
26821;DHT22;37186;51.394;5.454;2022-09-09T20:35:59;19.30;74.30
26821;DHT22;37186;51.394;5.454;2022-09-09T20:39:10;19.20;74.20
26821;DHT22;37186;51.394;5.454;2022-09-09T20:42:11;19.30;74.40